createdAt,value
2023-02-16T00:00:21.643Z,95.05
2023-02-16T00:03:13.641Z,97.13
2023-02-16T00:05:42.931Z,91.65
2023-02-16T00:08:12.141Z,91.53
2023-02-16T00:11:03.140Z,81.43
2023-02-16T00:13:47.973Z,95.47
2023-02-16T00:16:20.114Z,89.22
2023-02-16T00:18:49.951Z,91.50
2023-02-16T00:21:19.578Z,85.77
2023-02-16T00:23:49.375Z,85.90
2023-02-16T00:26:22.345Z,89.25
2023-02-16T00:28:54.338Z,83.43
2023-02-16T00:31:27.390Z,91.82
2023-02-16T00:33:57.766Z,89.07
2023-02-16T00:36:27.385Z,83.00
2023-02-16T00:38:56.489Z,92.70
2023-02-16T00:41:44.850Z,91.13
2023-02-16T00:44:18.340Z,88.55
2023-02-16T00:46:47.569Z,85.22
2023-02-16T00:49:17.298Z,89.50
2023-02-16T00:51:46.830Z,90.07
2023-02-16T00:54:16.053Z,89.45
2023-02-16T00:56:47.562Z,89.10
2023-02-16T00:59:21.374Z,91.70
2023-02-16T01:01:51.160Z,83.65
2023-02-16T01:04:24.093Z,92.35
2023-02-16T01:07:10.506Z,100.88
2023-02-16T01:09:56.945Z,87.05
2023-02-16T01:12:27.226Z,90.75
2023-02-16T01:14:57.575Z,98.13
2023-02-16T01:17:27.100Z,93.97
2023-02-16T01:19:56.402Z,94.03
2023-02-16T01:22:25.259Z,99.00
2023-02-16T01:24:54.462Z,94.60
2023-02-16T01:27:23.321Z,99.28
2023-02-16T01:29:53.973Z,92.72
2023-02-16T01:34:51.987Z,93.28
2023-02-16T01:37:21.418Z,90.15
2023-02-16T01:39:50.552Z,79.35
2023-02-16T01:42:36.075Z,88.10
2023-02-16T01:45:14.262Z,85.95
2023-02-16T01:47:48.550Z,91.60
2023-02-16T01:50:21.254Z,87.95
2023-02-16T01:52:56.576Z,91.78
2023-02-16T01:55:28.448Z,90.47
2023-02-16T01:58:01.706Z,97.85
2023-02-16T02:00:49.161Z,81.85
2023-02-16T02:03:37.965Z,86.82
2023-02-16T02:06:10.525Z,82.93
2023-02-16T02:08:44.424Z,89.70
2023-02-16T02:11:21.105Z,82.18
2023-02-16T02:14:00.943Z,89.35
2023-02-16T02:16:31.799Z,90.22
2023-02-16T02:19:01.244Z,78.82
2023-02-16T02:22:09.573Z,89.60
2023-02-16T02:25:07.702Z,90.32
2023-02-16T02:27:42.806Z,88.78
2023-02-16T02:30:29.942Z,88.82
2023-02-16T02:33:18.653Z,96.18
2023-02-16T02:35:53.749Z,94.60
2023-02-16T02:38:28.940Z,89.70
2023-02-16T02:41:08.197Z,90.00
2023-02-16T02:43:45.777Z,89.93
2023-02-16T02:46:20.181Z,90.45
2023-02-16T02:48:49.344Z,81.72
2023-02-16T02:51:30.725Z,92.90
2023-02-16T02:54:24.104Z,85.45
2023-02-16T02:57:18.603Z,84.38
2023-02-16T03:00:11.788Z,92.60
2023-02-16T03:02:43.245Z,83.22
2023-02-16T03:05:16.495Z,78.85
2023-02-16T03:07:48.347Z,87.60
2023-02-16T03:10:37.808Z,90.47
2023-02-16T03:13:12.321Z,89.25
2023-02-16T03:15:44.662Z,87.88
2023-02-16T03:18:33.505Z,93.00
2023-02-16T03:21:21.936Z,92.50
2023-02-16T03:24:09.781Z,89.03
2023-02-16T03:26:57.641Z,94.78
2023-02-16T03:29:28.721Z,88.53
2023-02-16T03:32:00.051Z,91.22
2023-02-16T03:34:31.454Z,86.72
2023-02-16T03:37:01.768Z,93.53
2023-02-16T03:39:31.234Z,90.65
2023-02-16T03:42:00.630Z,89.78
2023-02-16T03:44:29.457Z,80.10
2023-02-16T03:47:00.136Z,91.97
2023-02-16T03:51:57.926Z,82.82
2023-02-16T03:54:26.858Z,82.53
2023-02-16T03:56:55.963Z,89.47
2023-02-16T03:59:24.848Z,90.55
2023-02-16T04:01:54.140Z,84.97
2023-02-16T04:04:24.487Z,86.78
2023-02-16T04:06:53.736Z,95.05
2023-02-16T04:09:22.548Z,96.28
2023-02-16T04:12:09.168Z,84.15
2023-02-16T04:14:38.011Z,85.43
2023-02-16T04:17:07.102Z,91.68
2023-02-16T04:19:37.429Z,86.00
2023-02-16T04:22:06.563Z,84.72
2023-02-16T04:24:35.381Z,90.45
2023-02-16T04:27:05.168Z,87.38
2023-02-16T04:29:34.204Z,85.55
2023-02-16T04:32:03.427Z,79.35
2023-02-16T04:34:33.060Z,76.40
2023-02-16T04:37:04.077Z,79.25
2023-02-16T04:39:33.204Z,75.22
2023-02-16T04:42:02.301Z,80.97
2023-02-16T04:44:31.170Z,74.45
2023-02-16T04:47:00.339Z,78.53
2023-02-16T04:49:29.259Z,88.80
2023-02-16T04:51:58.473Z,76.07
2023-02-16T04:54:29.013Z,74.30
2023-02-16T04:56:58.261Z,76.32
2023-02-16T04:59:27.658Z,82.60
2023-02-16T05:01:57.464Z,81.63
2023-02-16T05:04:26.791Z,75.63
2023-02-16T05:06:56.151Z,76.18
2023-02-16T05:09:25.279Z,69.65
2023-02-16T05:12:13.488Z,74.20
2023-02-16T05:14:46.031Z,75.43
2023-02-16T05:17:19.520Z,68.90
2023-02-16T05:19:50.836Z,71.22
2023-02-16T05:22:20.592Z,74.88
2023-02-16T05:24:50.096Z,78.28
2023-02-16T05:27:23.037Z,77.60
2023-02-16T05:29:52.447Z,72.18
2023-02-16T05:32:22.084Z,72.15
2023-02-16T05:34:51.866Z,78.87
2023-02-16T05:37:20.987Z,73.63
2023-02-16T05:39:49.803Z,73.43
2023-02-16T05:42:20.330Z,68.32
2023-02-16T05:47:18.344Z,70.28
2023-02-16T05:49:47.878Z,80.72
2023-02-16T05:52:16.951Z,72.80
2023-02-16T05:54:45.865Z,77.22
2023-02-16T05:57:15.357Z,76.45
2023-02-16T05:59:45.585Z,67.90
2023-02-16T06:02:14.830Z,78.30
2023-02-16T06:04:43.690Z,71.05
2023-02-16T06:07:14.817Z,75.18
2023-02-16T06:09:44.044Z,80.22
2023-02-16T06:12:13.183Z,76.07
2023-02-16T06:14:42.054Z,68.05
2023-02-16T06:17:12.599Z,76.35
2023-02-16T06:19:41.480Z,71.45
2023-02-16T06:22:10.629Z,68.78
2023-02-16T06:24:39.987Z,68.25
2023-02-16T06:27:09.173Z,73.03
2023-02-16T06:29:38.049Z,66.63
2023-02-16T06:32:07.600Z,66.05
2023-02-16T06:34:37.913Z,66.25
2023-02-16T06:37:07.168Z,62.80
2023-02-16T06:39:36.073Z,67.40
2023-02-16T06:42:05.435Z,67.40
2023-02-16T06:44:34.248Z,65.45
2023-02-16T06:47:03.444Z,69.65
2023-02-16T06:49:32.280Z,67.75
2023-02-16T06:52:03.348Z,67.30
2023-02-16T06:57:01.473Z,67.65
2023-02-16T06:59:30.502Z,69.72
2023-02-16T07:01:59.632Z,70.97
2023-02-16T07:04:30.563Z,67.82
2023-02-16T07:07:00.209Z,65.70
2023-02-16T07:09:30.690Z,64.75
2023-02-16T07:11:59.894Z,69.90
2023-02-16T07:14:28.746Z,69.43
2023-02-16T07:16:59.290Z,61.88
2023-02-16T07:19:30.324Z,60.45
2023-02-16T07:21:59.596Z,58.50
2023-02-16T07:24:29.812Z,64.53
2023-02-16T07:26:58.988Z,60.95
2023-02-16T07:29:27.831Z,64.15
2023-02-16T07:31:57.821Z,58.80
2023-02-16T07:34:27.093Z,56.53
2023-02-16T07:36:56.323Z,63.37
2023-02-16T07:39:25.409Z,60.67
2023-02-16T07:41:56.018Z,63.07
2023-02-16T07:44:27.975Z,58.95
2023-02-16T07:46:57.296Z,64.88
2023-02-16T07:49:26.139Z,63.97
2023-02-16T07:51:55.316Z,60.75
2023-02-16T07:54:24.178Z,56.65
2023-02-16T07:56:53.414Z,72.28
2023-02-16T07:59:23.606Z,63.13
2023-02-16T08:01:52.887Z,50.53
2023-02-16T08:04:22.075Z,53.97
2023-02-16T08:06:51.378Z,57.17
2023-02-16T08:09:20.219Z,55.38
2023-02-16T08:11:49.402Z,59.08
2023-02-16T08:14:18.294Z,52.38
2023-02-16T08:16:51.419Z,51.40
2023-02-16T08:19:22.527Z,52.38
2023-02-16T08:21:51.690Z,55.72
2023-02-16T08:24:20.565Z,53.88
2023-02-16T08:26:50.722Z,52.25
2023-02-16T08:29:20.127Z,57.35
2023-02-16T08:31:51.685Z,57.55
2023-02-16T08:34:22.823Z,54.30
2023-02-16T08:36:56.051Z,55.08
2023-02-16T08:39:27.165Z,55.58
2023-02-16T08:41:57.206Z,58.25
2023-02-16T08:44:28.003Z,61.42
2023-02-16T08:47:01.062Z,52.70
2023-02-16T08:49:30.048Z,51.78
2023-02-16T08:52:01.636Z,55.92
2023-02-16T08:54:33.405Z,71.20
2023-02-16T08:57:03.988Z,158.55
2023-02-16T08:59:34.499Z,226.63
2023-02-16T09:02:05.504Z,147.18
2023-02-16T09:04:34.708Z,121.20
2023-02-16T09:07:04.733Z,116.57
2023-02-16T09:09:33.635Z,123.47
2023-02-16T09:12:02.716Z,86.03
2023-02-16T09:14:31.648Z,77.07
2023-02-16T09:17:00.865Z,61.13
2023-02-16T09:19:31.323Z,58.05
2023-02-16T09:22:00.719Z,60.80
2023-02-16T09:24:29.619Z,57.72
2023-02-16T09:26:58.797Z,61.95
2023-02-16T09:29:27.606Z,58.20
2023-02-16T09:31:56.889Z,54.20
2023-02-16T09:34:27.874Z,57.40
2023-02-16T09:36:58.778Z,63.47
2023-02-16T09:42:09.010Z,53.70
2023-02-16T09:44:49.539Z,57.75
2023-02-16T09:47:26.230Z,60.42
2023-02-16T09:49:56.956Z,56.75
2023-02-16T09:52:36.076Z,58.97
2023-02-16T09:55:09.036Z,50.22
2023-02-16T09:57:55.472Z,53.92
2023-02-16T10:00:35.846Z,55.70
2023-02-16T10:03:19.346Z,49.45
2023-02-16T10:05:55.160Z,54.92
2023-02-16T10:08:30.229Z,52.85
2023-02-16T10:11:28.500Z,54.25
2023-02-16T10:14:01.340Z,54.00
2023-02-16T10:16:35.941Z,44.72
2023-02-16T10:19:16.213Z,46.78
2023-02-16T10:21:48.179Z,49.08
2023-02-16T10:24:18.817Z,47.13
2023-02-16T10:31:58.243Z,48.08
2023-02-16T10:34:46.384Z,49.13
2023-02-16T10:37:27.396Z,51.20
2023-02-16T10:40:27.193Z,47.58
2023-02-16T10:43:03.700Z,45.50
2023-02-16T10:45:37.925Z,48.00
2023-02-16T10:48:06.989Z,53.03
2023-02-16T10:50:42.020Z,49.13
2023-02-16T10:53:16.612Z,45.15
2023-02-16T10:55:47.426Z,50.08
2023-02-16T10:58:22.711Z,50.92
2023-02-16T11:00:57.889Z,50.20
2023-02-16T11:03:30.831Z,49.38
2023-02-16T11:06:15.232Z,40.70
2023-02-16T11:08:50.076Z,45.10
2023-02-16T11:11:22.814Z,52.22
2023-02-16T11:13:59.046Z,48.35
2023-02-16T11:16:28.645Z,45.03
2023-02-16T11:19:00.329Z,44.78
2023-02-16T11:21:47.345Z,49.40
2023-02-16T11:24:27.036Z,46.20
2023-02-16T11:27:06.878Z,49.55
2023-02-16T11:29:36.010Z,41.70
2023-02-16T11:32:10.185Z,41.67
2023-02-16T11:34:43.523Z,44.13
2023-02-16T11:37:20.935Z,44.33
2023-02-16T11:39:52.167Z,40.38
2023-02-16T11:42:29.945Z,40.03
2023-02-16T11:45:01.394Z,44.85
2023-02-16T11:47:32.985Z,43.53
2023-02-16T11:50:22.751Z,40.72
2023-02-16T11:52:54.248Z,43.90
2023-02-16T11:55:27.970Z,50.38
2023-02-16T11:58:16.513Z,56.17
2023-02-16T12:00:59.615Z,53.65
2023-02-16T12:03:50.533Z,49.78
2023-02-16T12:06:32.120Z,46.65
2023-02-16T12:09:15.434Z,44.95
2023-02-16T12:11:54.139Z,46.20
2023-02-16T12:14:39.303Z,46.65
2023-02-16T12:17:21.762Z,54.90
2023-02-16T12:20:00.859Z,54.92
2023-02-16T12:22:36.328Z,52.78
2023-02-16T12:25:23.665Z,51.10
2023-02-16T12:28:00.212Z,51.65
2023-02-16T12:30:47.012Z,45.80
2023-02-16T12:33:37.299Z,46.20
2023-02-16T12:36:30.798Z,46.88
2023-02-16T12:39:09.995Z,45.78
2023-02-16T12:41:54.167Z,50.15
2023-02-16T12:44:33.031Z,62.30
2023-02-16T12:47:12.823Z,50.60
2023-02-16T12:49:48.704Z,54.28
2023-02-16T12:52:29.560Z,57.85
2023-02-16T12:55:09.037Z,54.10
2023-02-16T12:57:44.509Z,60.58
2023-02-16T13:00:22.150Z,60.60
2023-02-16T13:03:00.326Z,62.17
2023-02-16T13:05:36.019Z,62.58
2023-02-16T13:08:16.396Z,61.50
2023-02-16T13:10:57.429Z,68.60
2023-02-16T13:13:30.352Z,64.80
2023-02-16T13:16:14.970Z,65.15
2023-02-16T13:18:57.218Z,63.63
2023-02-16T13:21:52.739Z,70.82
2023-02-16T13:24:34.732Z,60.10
2023-02-16T13:27:18.354Z,64.35
2023-02-16T13:30:08.906Z,64.50
2023-02-16T13:33:14.288Z,68.03
2023-02-16T13:36:07.650Z,72.50
2023-02-16T13:39:00.763Z,66.35
2023-02-16T13:41:46.028Z,68.18
2023-02-16T13:44:18.395Z,93.25
2023-02-16T13:46:50.328Z,71.35
2023-02-16T13:49:36.244Z,66.93
2023-02-16T13:52:08.806Z,68.72
2023-02-16T13:54:40.005Z,74.97
2023-02-16T13:57:13.936Z,73.00
2023-02-16T14:00:04.405Z,62.63
2023-02-16T14:02:58.591Z,70.18
2023-02-16T14:05:32.018Z,70.60
2023-02-16T14:08:21.808Z,72.53
2023-02-16T14:11:11.457Z,68.00
2023-02-16T14:13:51.480Z,68.93
2023-02-16T14:16:34.052Z,66.43
2023-02-16T14:19:17.741Z,67.47
2023-02-16T14:21:48.930Z,72.13
2023-02-16T14:24:33.794Z,72.20
2023-02-16T14:27:04.800Z,73.93
2023-02-16T14:29:39.041Z,63.35
2023-02-16T14:32:23.417Z,69.65
2023-02-16T14:34:58.541Z,69.10
2023-02-16T14:37:37.739Z,68.90
2023-02-16T14:40:20.467Z,70.03
2023-02-16T14:42:56.418Z,71.13
2023-02-16T14:45:54.051Z,65.57
2023-02-16T14:48:45.165Z,65.97
2023-02-16T14:51:44.271Z,62.38
2023-02-16T14:59:18.075Z,74.85
2023-02-16T15:01:48.253Z,76.03
2023-02-16T15:04:29.304Z,67.07
2023-02-16T15:07:01.136Z,62.60
2023-02-16T15:09:33.843Z,59.47
2023-02-16T15:12:24.508Z,67.53
2023-02-16T15:15:00.368Z,59.42
2023-02-16T15:17:35.554Z,66.57
2023-02-16T15:20:10.630Z,60.60
2023-02-16T15:22:44.439Z,64.40
2023-02-16T15:25:25.572Z,61.83
2023-02-16T15:27:59.093Z,66.65
2023-02-16T15:30:31.442Z,68.97
2023-02-16T15:33:03.352Z,75.60
2023-02-16T15:35:36.880Z,59.90
2023-02-16T15:38:09.566Z,62.15
2023-02-16T15:40:39.056Z,66.15
2023-02-16T15:43:19.245Z,70.50
2023-02-16T15:45:53.921Z,70.45
2023-02-16T15:48:27.117Z,66.72
2023-02-16T15:50:58.783Z,65.82
2023-02-16T15:53:37.349Z,73.40
2023-02-16T15:56:32.707Z,66.65
2023-02-16T15:59:05.559Z,69.25
2023-02-16T16:01:36.620Z,66.35
2023-02-16T16:04:17.742Z,89.28
2023-02-16T16:06:48.281Z,82.65
2023-02-16T16:09:25.511Z,85.45
2023-02-16T16:11:57.688Z,78.55
2023-02-16T16:14:28.642Z,82.20
2023-02-16T16:16:59.401Z,77.13
2023-02-16T16:19:35.840Z,85.78
2023-02-16T16:22:15.891Z,81.03
2023-02-16T16:27:16.811Z,80.80
2023-02-16T16:29:47.639Z,73.25
2023-02-16T16:32:23.519Z,80.40
2023-02-16T16:34:53.196Z,76.80
2023-02-16T16:37:27.752Z,86.60
2023-02-16T16:40:04.297Z,82.13
2023-02-16T16:42:34.729Z,75.00
2023-02-16T16:45:07.623Z,82.25
2023-02-16T16:47:40.645Z,76.53
2023-02-16T16:50:32.200Z,77.60
2023-02-16T16:53:01.120Z,77.47
2023-02-16T16:55:35.280Z,84.70
2023-02-16T16:58:07.974Z,79.03
2023-02-16T17:00:39.024Z,75.25
2023-02-16T17:03:10.452Z,78.38
2023-02-16T17:05:41.054Z,80.68
2023-02-16T17:08:10.913Z,75.22
2023-02-16T17:10:42.344Z,79.10
2023-02-16T17:13:16.395Z,70.95
2023-02-16T17:15:49.767Z,82.75
2023-02-16T17:18:22.055Z,80.13
2023-02-16T17:20:52.530Z,78.25
2023-02-16T17:23:22.952Z,77.95
2023-02-16T17:25:52.722Z,76.57
2023-02-16T17:28:21.868Z,75.18
2023-02-16T17:30:51.008Z,83.60
2023-02-16T17:33:21.451Z,79.50
2023-02-16T17:35:50.804Z,72.72
2023-02-16T17:38:21.639Z,81.20
2023-02-16T17:40:51.903Z,75.75
2023-02-16T17:43:22.660Z,67.13
2023-02-16T17:45:53.708Z,77.22
2023-02-16T17:48:28.132Z,75.40
2023-02-16T17:50:58.739Z,78.90
2023-02-16T17:53:29.473Z,73.20
2023-02-16T17:55:59.450Z,74.43
2023-02-16T17:58:28.454Z,86.32
2023-02-16T18:00:58.903Z,79.50
2023-02-16T18:08:24.886Z,93.75
2023-02-16T18:11:01.824Z,88.68
2023-02-16T18:13:31.413Z,93.07
2023-02-16T18:16:03.703Z,102.22
2023-02-16T18:23:13.074Z,113.72
2023-02-16T18:25:46.209Z,99.88
2023-02-16T18:28:19.686Z,101.80
2023-02-16T18:30:50.812Z,100.43
2023-02-16T18:33:21.840Z,96.70
2023-02-16T18:35:52.208Z,95.05
2023-02-16T18:38:22.361Z,96.50
2023-02-16T18:40:54.173Z,99.00
2023-02-16T18:43:24.825Z,93.78
2023-02-16T18:45:54.016Z,90.10
2023-02-16T18:48:23.432Z,90.63
2023-02-16T18:50:52.606Z,85.95
2023-02-16T18:53:22.043Z,86.53
2023-02-16T18:55:52.753Z,92.93
2023-02-16T18:58:22.027Z,86.60
2023-02-16T19:00:51.181Z,100.13
2023-02-16T19:03:20.727Z,118.35
2023-02-16T19:05:49.914Z,122.43
2023-02-16T19:08:19.125Z,114.63
2023-02-16T19:10:48.164Z,113.65
2023-02-16T19:13:19.569Z,107.80
2023-02-16T19:15:48.483Z,116.70
2023-02-16T19:18:17.840Z,114.97
2023-02-16T19:20:47.020Z,109.50
2023-02-16T19:23:16.309Z,107.22
2023-02-16T19:25:45.506Z,107.63
2023-02-16T19:28:15.031Z,110.78
2023-02-16T19:30:46.026Z,100.68
2023-02-16T19:33:15.604Z,99.68
2023-02-16T19:35:44.821Z,94.07
2023-02-16T19:38:15.149Z,91.68
2023-02-16T19:40:45.347Z,99.07
2023-02-16T19:43:14.497Z,91.13
2023-02-16T19:45:44.767Z,95.65
2023-02-16T19:48:14.219Z,89.72
2023-02-16T19:50:43.140Z,97.43
2023-02-16T19:53:12.451Z,95.95
2023-02-16T19:55:42.764Z,94.72
2023-02-16T19:58:12.008Z,93.95
2023-02-16T20:00:41.014Z,101.82
2023-02-16T20:03:11.850Z,91.15
2023-02-16T20:08:40.686Z,93.78
2023-02-16T20:17:01.884Z,93.28
2023-02-16T20:19:32.893Z,92.50
2023-02-16T20:22:02.177Z,93.68
2023-02-16T20:27:28.936Z,95.82
2023-02-16T20:33:21.144Z,93.03
2023-02-16T20:35:52.309Z,93.05
2023-02-16T20:38:21.676Z,94.55
2023-02-16T20:40:51.023Z,93.35
2023-02-16T20:43:21.720Z,94.28
2023-02-16T20:45:51.235Z,99.38
2023-02-16T20:48:20.659Z,97.03
2023-02-16T20:50:56.304Z,92.30
2023-02-16T20:53:26.040Z,95.05
2023-02-16T21:00:24.058Z,93.25
2023-02-16T21:02:54.274Z,82.47
2023-02-16T21:05:24.092Z,85.90
2023-02-16T21:07:54.901Z,91.63
2023-02-16T21:10:23.925Z,83.53
2023-02-16T21:12:53.339Z,96.93
2023-02-16T21:15:47.633Z,91.13
2023-02-16T21:28:55.635Z,83.65
2023-02-16T21:31:27.492Z,88.65
2023-02-16T21:33:56.683Z,97.20
2023-02-16T21:36:27.703Z,88.43
2023-02-16T21:39:43.746Z,93.53
2023-02-16T21:42:12.262Z,89.97
2023-02-16T21:44:43.158Z,90.60
2023-02-16T21:47:32.414Z,84.78
2023-02-16T21:50:02.169Z,91.90
2023-02-16T21:52:31.529Z,86.78
2023-02-16T21:55:17.918Z,85.63
2023-02-16T21:57:47.519Z,84.20
2023-02-16T22:00:17.452Z,94.38
2023-02-16T22:05:17.332Z,93.55
2023-02-16T22:07:46.755Z,89.63
2023-02-16T22:10:15.821Z,80.43
2023-02-16T22:12:45.193Z,86.07
2023-02-16T22:15:14.260Z,84.97
2023-02-16T22:17:43.576Z,85.83
2023-02-16T22:20:14.734Z,88.10
2023-02-16T22:22:44.561Z,85.82
2023-02-16T22:25:14.594Z,82.30
2023-02-16T22:27:43.970Z,92.13
2023-02-16T22:30:13.447Z,84.45
2023-02-16T22:32:42.875Z,84.78
2023-02-16T22:35:13.556Z,90.88
2023-02-16T22:37:42.940Z,91.35
2023-02-16T22:40:12.283Z,88.50
2023-02-16T22:42:41.727Z,87.68
2023-02-16T22:45:11.603Z,87.97
2023-02-16T22:50:10.303Z,90.03
2023-02-16T22:52:41.342Z,85.13
2023-02-16T22:55:11.108Z,92.65
2023-02-16T22:57:40.724Z,89.22
2023-02-16T23:00:14.450Z,92.07
2023-02-16T23:02:43.871Z,83.47
2023-02-16T23:05:12.887Z,89.43
2023-02-16T23:07:43.643Z,95.20
2023-02-16T23:10:12.763Z,87.35
2023-02-16T23:12:42.084Z,86.33
2023-02-16T23:15:11.632Z,86.90
2023-02-16T23:17:40.874Z,92.63
2023-02-16T23:20:10.691Z,90.82
2023-02-16T23:22:40.088Z,79.22
2023-02-16T23:25:27.824Z,89.03
2023-02-16T23:27:57.252Z,88.90
2023-02-16T23:30:26.770Z,95.63
2023-02-16T23:32:56.208Z,90.63
2023-02-16T23:35:25.316Z,85.40
2023-02-16T23:37:54.602Z,89.07
2023-02-16T23:40:24.994Z,88.00
2023-02-16T23:42:54.371Z,88.90
2023-02-16T23:45:23.323Z,88.97
2023-02-16T23:47:52.619Z,94.53
2023-02-16T23:50:21.873Z,92.93
2023-02-16T23:52:51.148Z,91.43
2023-02-16T23:55:20.277Z,88.22
2023-02-16T23:57:50.964Z,85.68
